createdAt,value
2017-03-16T00:01:13.822Z,0
2017-03-16T00:01:54.279Z,0
2017-03-16T00:02:34.750Z,0
2017-03-16T00:03:15.224Z,0
2017-03-16T00:03:55.679Z,0
2017-03-16T00:04:36.119Z,0
2017-03-16T00:05:16.548Z,0
2017-03-16T00:07:29.294Z,0
2017-03-16T00:08:09.761Z,0
2017-03-16T00:08:50.235Z,0
2017-03-16T00:09:30.682Z,0
2017-03-16T00:10:11.090Z,0
2017-03-16T00:10:51.514Z,0
2017-03-16T00:11:31.910Z,0
2017-03-16T00:12:12.320Z,0
2017-03-16T00:12:52.722Z,0
2017-03-16T00:13:33.155Z,0
2017-03-16T00:14:13.588Z,0
2017-03-16T00:16:31.322Z,0
2017-03-16T00:17:11.741Z,0
2017-03-16T00:17:52.133Z,0
2017-03-16T00:18:32.562Z,0
2017-03-16T00:19:12.953Z,0
2017-03-16T00:19:53.389Z,0
2017-03-16T00:20:33.789Z,0
2017-03-16T00:21:14.190Z,0
2017-03-16T00:21:54.623Z,0
2017-03-16T00:22:35.002Z,0
2017-03-16T00:24:52.750Z,0
2017-03-16T00:25:33.185Z,0
2017-03-16T00:26:13.595Z,0
2017-03-16T00:26:54.016Z,0
2017-03-16T00:29:26.885Z,0
2017-03-16T00:30:07.287Z,0
2017-03-16T00:30:47.675Z,0
2017-03-16T00:31:28.088Z,0
2017-03-16T00:34:00.970Z,0
2017-03-16T00:34:41.396Z,0
2017-03-16T00:35:21.780Z,0
2017-03-16T00:36:02.204Z,0
2017-03-16T00:36:42.562Z,0
2017-03-16T00:37:22.933Z,0
2017-03-16T00:39:55.828Z,0
2017-03-16T00:40:36.256Z,0
2017-03-16T00:41:16.674Z,0
2017-03-16T00:41:57.855Z,0
2017-03-16T00:44:30.753Z,0
2017-03-16T00:45:11.160Z,0
2017-03-16T00:45:51.567Z,0
2017-03-16T00:46:31.976Z,0
2017-03-16T00:47:12.399Z,0
2017-03-16T00:49:30.136Z,0
2017-03-16T00:50:10.521Z,0
2017-03-16T00:50:50.874Z,0
2017-03-16T00:51:31.323Z,0
2017-03-16T00:52:11.773Z,0
2017-03-16T00:52:52.139Z,0
2017-03-16T00:53:32.574Z,0
2017-03-16T00:54:12.953Z,0
2017-03-16T00:56:40.823Z,0
2017-03-16T00:57:21.264Z,0
2017-03-16T00:58:01.675Z,0
2017-03-16T00:58:42.120Z,0
2017-03-16T00:59:22.555Z,0
2017-03-16T01:00:02.999Z,0
2017-03-16T01:00:43.418Z,0
2017-03-16T01:01:23.841Z,0
2017-03-16T01:02:04.300Z,0
2017-03-16T01:04:16.994Z,0
2017-03-16T01:04:57.361Z,0
2017-03-16T01:05:37.774Z,0
2017-03-16T01:06:18.158Z,0
2017-03-16T01:06:58.567Z,0
2017-03-16T01:07:38.945Z,0
2017-03-16T01:08:19.370Z,0
2017-03-16T01:08:59.749Z,0
2017-03-16T01:09:40.138Z,0
2017-03-16T01:10:20.557Z,0
2017-03-16T01:11:00.949Z,0
2017-03-16T01:11:41.322Z,0
2017-03-16T01:12:21.727Z,0
2017-03-16T01:13:02.096Z,0
2017-03-16T01:13:42.479Z,0
2017-03-16T01:14:22.883Z,0
2017-03-16T01:15:03.276Z,0
2017-03-16T01:15:43.662Z,0
2017-03-16T01:16:24.070Z,0
2017-03-16T01:17:04.489Z,0
2017-03-16T01:17:44.900Z,0
2017-03-16T01:18:25.282Z,0
2017-03-16T01:19:05.691Z,0
2017-03-16T01:19:46.099Z,0
2017-03-16T01:20:26.497Z,0
2017-03-16T01:21:06.882Z,0
2017-03-16T01:21:47.303Z,0
2017-03-16T01:22:27.693Z,0
2017-03-16T01:23:08.112Z,0
2017-03-16T01:23:48.518Z,0
2017-03-16T01:24:28.931Z,0
2017-03-16T01:26:46.702Z,0
2017-03-16T01:27:27.154Z,0
2017-03-16T01:28:07.593Z,0
2017-03-16T01:28:48.025Z,0
2017-03-16T01:29:28.458Z,0
2017-03-16T01:30:08.890Z,0
2017-03-16T01:30:49.331Z,0
2017-03-16T01:31:29.756Z,0
2017-03-16T01:32:10.191Z,0
2017-03-16T01:32:50.647Z,0
2017-03-16T01:33:31.116Z,0
2017-03-16T01:34:12.150Z,0
2017-03-16T01:34:52.587Z,0
2017-03-16T01:35:33.033Z,0
2017-03-16T01:37:50.755Z,0
2017-03-16T01:38:31.185Z,0
2017-03-16T01:39:11.631Z,0
2017-03-16T01:39:52.005Z,0
2017-03-16T01:42:04.669Z,0
2017-03-16T01:42:45.103Z,0
2017-03-16T01:43:25.554Z,0
2017-03-16T01:44:05.993Z,0
2017-03-16T01:44:46.397Z,0
2017-03-16T01:45:26.813Z,0
2017-03-16T01:47:39.499Z,0
2017-03-16T01:48:19.934Z,0
2017-03-16T01:49:00.324Z,0
2017-03-16T01:49:40.740Z,0
2017-03-16T01:50:21.139Z,0
2017-03-16T01:51:01.555Z,0
2017-03-16T01:51:41.951Z,0
2017-03-16T01:54:09.783Z,0
2017-03-16T01:54:50.206Z,0
2017-03-16T01:55:30.638Z,0
2017-03-16T01:56:11.088Z,0
2017-03-16T01:56:51.523Z,0
2017-03-16T01:57:31.947Z,0
2017-03-16T01:58:12.374Z,0
2017-03-16T01:58:52.814Z,0
2017-03-16T02:01:20.644Z,0
2017-03-16T02:02:01.070Z,0
2017-03-16T02:02:42.281Z,0
2017-03-16T02:03:22.698Z,0
2017-03-16T02:05:35.905Z,0
2017-03-16T02:06:16.334Z,0
2017-03-16T02:06:56.778Z,0
2017-03-16T02:07:37.220Z,0
2017-03-16T02:08:18.335Z,0
2017-03-16T02:08:58.859Z,0
2017-03-16T02:09:39.213Z,0
2017-03-16T02:10:19.670Z,0
2017-03-16T02:11:00.069Z,0
2017-03-16T02:11:40.500Z,0
2017-03-16T02:12:20.937Z,0
2017-03-16T02:13:01.434Z,0
2017-03-16T02:13:41.845Z,0
2017-03-16T02:14:22.255Z,0
2017-03-16T02:15:02.684Z,0
2017-03-16T02:15:43.136Z,0
2017-03-16T02:16:24.319Z,0
2017-03-16T02:17:04.731Z,0
2017-03-16T02:17:45.145Z,0
2017-03-16T02:18:26.178Z,0
2017-03-16T02:19:06.576Z,0
2017-03-16T02:19:46.958Z,0
2017-03-16T02:20:27.370Z,0
2017-03-16T02:22:40.042Z,0
2017-03-16T02:23:20.454Z,0
2017-03-16T02:25:33.113Z,0
2017-03-16T02:26:13.544Z,0
2017-03-16T02:26:53.970Z,0
2017-03-16T02:27:34.403Z,0
2017-03-16T02:28:14.849Z,0
2017-03-16T02:28:55.288Z,0
2017-03-16T02:29:35.721Z,0
2017-03-16T02:30:16.147Z,0
2017-03-16T02:30:56.571Z,0
2017-03-16T02:31:37.028Z,0
2017-03-16T02:32:17.470Z,0
2017-03-16T02:32:57.880Z,0
2017-03-16T02:33:38.300Z,0
2017-03-16T02:34:18.746Z,0
2017-03-16T02:34:59.192Z,0
2017-03-16T02:35:39.592Z,0
2017-03-16T02:36:20.036Z,0
2017-03-16T02:37:00.471Z,0
2017-03-16T02:37:40.898Z,0
2017-03-16T02:38:21.312Z,0
2017-03-16T02:40:39.043Z,0
2017-03-16T02:41:19.445Z,0
2017-03-16T02:41:59.881Z,0
2017-03-16T02:42:40.314Z,0
2017-03-16T02:43:20.728Z,0
2017-03-16T02:44:01.154Z,0
2017-03-16T02:44:41.561Z,0
2017-03-16T02:45:21.951Z,0
2017-03-16T02:47:49.783Z,0
2017-03-16T02:48:30.247Z,0
2017-03-16T02:49:10.655Z,0
2017-03-16T02:49:51.139Z,0
2017-03-16T02:50:32.472Z,0
2017-03-16T02:53:00.956Z,0
2017-03-16T02:53:41.402Z,0
2017-03-16T02:54:21.846Z,0
2017-03-16T02:55:02.288Z,0
2017-03-16T02:55:42.722Z,0
2017-03-16T02:56:23.139Z,0
2017-03-16T02:57:03.597Z,0
2017-03-16T02:57:44.018Z,0
2017-03-16T02:58:25.200Z,0
2017-03-16T02:59:05.650Z,0
2017-03-16T02:59:46.084Z,0
2017-03-16T03:00:26.528Z,0
2017-03-16T03:01:06.963Z,0
2017-03-16T03:01:47.419Z,0
2017-03-16T03:02:27.839Z,0
2017-03-16T03:03:08.273Z,0
2017-03-16T03:03:48.690Z,0
2017-03-16T03:04:29.117Z,0
2017-03-16T03:05:09.560Z,0
2017-03-16T03:05:49.998Z,0
2017-03-16T03:06:30.441Z,0
2017-03-16T03:07:10.876Z,0
2017-03-16T03:07:51.322Z,0
2017-03-16T03:08:31.775Z,0
2017-03-16T03:09:12.203Z,0
2017-03-16T03:09:52.638Z,0
2017-03-16T03:10:33.060Z,0
2017-03-16T03:11:13.513Z,0
2017-03-16T03:11:53.944Z,0
2017-03-16T03:12:34.383Z,0
2017-03-16T03:13:14.808Z,0
2017-03-16T03:13:55.248Z,0
2017-03-16T03:14:35.689Z,0
2017-03-16T03:15:16.163Z,0
2017-03-16T03:15:56.581Z,0
2017-03-16T03:18:14.313Z,0
2017-03-16T03:18:54.754Z,0
2017-03-16T03:19:35.195Z,0
2017-03-16T03:20:15.635Z,0
2017-03-16T03:22:53.607Z,0
2017-03-16T03:23:34.016Z,0
2017-03-16T03:24:14.419Z,0
2017-03-16T03:24:54.813Z,0
2017-03-16T03:25:35.194Z,0
2017-03-16T03:26:15.580Z,0
2017-03-16T03:26:55.974Z,0
2017-03-16T03:27:36.361Z,0
2017-03-16T03:28:16.772Z,0
2017-03-16T03:28:57.164Z,0
2017-03-16T03:29:37.557Z,0
2017-03-16T03:31:50.288Z,0
2017-03-16T03:32:30.722Z,0
2017-03-16T03:33:11.163Z,0
2017-03-16T03:35:44.078Z,0
2017-03-16T03:36:24.488Z,0
2017-03-16T03:37:04.896Z,0
2017-03-16T03:37:45.320Z,0
2017-03-16T03:38:25.717Z,0
2017-03-16T03:39:06.651Z,0
2017-03-16T03:39:47.057Z,0
2017-03-16T03:40:27.452Z,0
2017-03-16T03:41:07.806Z,0
2017-03-16T03:41:48.215Z,0
2017-03-16T03:42:28.622Z,0
2017-03-16T03:43:09.029Z,0
2017-03-16T03:43:49.442Z,0
2017-03-16T03:44:29.854Z,0
2017-03-16T03:45:10.248Z,0
2017-03-16T03:45:50.648Z,0
2017-03-16T03:46:31.055Z,0
2017-03-16T03:47:11.448Z,0
2017-03-16T03:47:52.640Z,0
2017-03-16T03:48:33.056Z,0
2017-03-16T03:49:13.457Z,0
2017-03-16T03:49:53.869Z,0
2017-03-16T03:50:34.296Z,0
2017-03-16T03:51:14.688Z,0
2017-03-16T03:53:27.362Z,0
2017-03-16T03:54:07.780Z,0
2017-03-16T03:54:48.201Z,0
2017-03-16T03:55:29.172Z,0
2017-03-16T03:56:09.604Z,0
2017-03-16T03:56:50.024Z,0
2017-03-16T03:59:22.936Z,0
2017-03-16T04:00:03.358Z,0
2017-03-16T04:00:43.755Z,0
2017-03-16T04:01:24.194Z,0
2017-03-16T04:02:06.530Z,0
2017-03-16T04:02:46.972Z,0
2017-03-16T04:03:27.405Z,0
2017-03-16T04:05:46.127Z,0
2017-03-16T04:06:26.574Z,0
2017-03-16T04:07:07.650Z,0
2017-03-16T04:07:48.078Z,0
2017-03-16T04:08:28.522Z,0
2017-03-16T04:09:08.946Z,0
2017-03-16T04:09:49.384Z,0
2017-03-16T04:10:29.790Z,0
2017-03-16T04:11:10.196Z,0
2017-03-16T04:13:38.044Z,0
2017-03-16T04:14:18.495Z,0
2017-03-16T04:14:58.921Z,0
2017-03-16T04:15:39.348Z,0
2017-03-16T04:16:19.763Z,0
2017-03-16T04:17:00.191Z,0
2017-03-16T04:17:40.588Z,0
2017-03-16T04:18:21.007Z,0
2017-03-16T04:20:38.736Z,0
2017-03-16T04:21:19.171Z,0
2017-03-16T04:23:31.819Z,0
2017-03-16T04:24:12.240Z,0
2017-03-16T04:24:52.628Z,0
2017-03-16T04:25:33.070Z,0
2017-03-16T04:26:13.441Z,0
2017-03-16T04:26:53.847Z,0
2017-03-16T04:27:34.246Z,0
2017-03-16T04:28:14.689Z,0
2017-03-16T04:28:55.095Z,0
2017-03-16T04:29:35.550Z,0
2017-03-16T04:30:16.625Z,0
2017-03-16T04:30:57.137Z,0
2017-03-16T04:33:09.858Z,0
2017-03-16T04:33:50.213Z,0
2017-03-16T04:34:30.594Z,0
2017-03-16T04:35:11.058Z,0
2017-03-16T04:35:52.426Z,0
2017-03-16T04:36:32.801Z,0
2017-03-16T04:37:13.209Z,0
2017-03-16T04:37:54.355Z,0
2017-03-16T04:38:34.738Z,0
2017-03-16T04:39:15.138Z,0
2017-03-16T04:39:55.524Z,0
2017-03-16T04:40:35.943Z,0
2017-03-16T04:41:17.302Z,0
2017-03-16T04:41:57.674Z,0
2017-03-16T04:42:38.110Z,0
2017-03-16T04:43:18.484Z,0
2017-03-16T04:43:58.878Z,0
2017-03-16T04:44:39.342Z,0
2017-03-16T04:45:19.727Z,0
2017-03-16T04:46:00.111Z,0
2017-03-16T04:46:40.561Z,0
2017-03-16T04:47:21.002Z,0
2017-03-16T04:49:49.453Z,0
2017-03-16T04:52:07.186Z,0
2017-03-16T04:52:47.622Z,0
2017-03-16T04:53:28.044Z,0
2017-03-16T04:54:08.491Z,0
2017-03-16T04:54:48.940Z,0
2017-03-16T04:55:29.376Z,0
2017-03-16T04:56:09.765Z,0
2017-03-16T04:56:50.209Z,0
2017-03-16T04:57:30.662Z,0
2017-03-16T04:58:11.057Z,0
2017-03-16T04:58:51.481Z,0
2017-03-16T05:01:29.471Z,0
2017-03-16T05:02:09.882Z,0
2017-03-16T05:02:50.282Z,0
2017-03-16T05:03:30.657Z,0
2017-03-16T05:04:11.063Z,0
2017-03-16T05:04:51.448Z,0
2017-03-16T05:05:31.858Z,0
2017-03-16T05:06:12.262Z,0
2017-03-16T05:06:52.679Z,0
2017-03-16T05:07:33.079Z,0
2017-03-16T05:08:13.448Z,0
2017-03-16T05:10:46.901Z,0
2017-03-16T05:11:27.316Z,0
2017-03-16T05:12:07.757Z,0
2017-03-16T05:12:48.172Z,0
2017-03-16T05:13:28.586Z,0
2017-03-16T05:14:08.987Z,0
2017-03-16T05:14:49.420Z,0
2017-03-16T05:15:29.845Z,0
2017-03-16T05:16:10.285Z,0
2017-03-16T05:16:50.704Z,0
2017-03-16T05:17:31.151Z,0
2017-03-16T05:18:11.573Z,0
2017-03-16T05:18:52.005Z,0
2017-03-16T05:19:32.448Z,0
2017-03-16T05:20:12.841Z,0
2017-03-16T05:22:50.852Z,0
2017-03-16T05:23:31.276Z,0
2017-03-16T05:24:12.388Z,0
2017-03-16T05:24:52.830Z,0
2017-03-16T05:25:33.269Z,0
2017-03-16T05:26:13.689Z,0
2017-03-16T05:26:54.131Z,0
2017-03-16T05:27:34.551Z,0
2017-03-16T05:28:14.985Z,0
2017-03-16T05:28:55.418Z,0
2017-03-16T05:29:35.837Z,0
2017-03-16T05:30:16.259Z,0
2017-03-16T05:30:56.690Z,0
2017-03-16T05:31:37.114Z,0
2017-03-16T05:33:49.773Z,5
2017-03-16T05:34:30.890Z,5
2017-03-16T05:36:58.692Z,5
2017-03-16T05:37:39.120Z,5
2017-03-16T05:38:19.566Z,5
2017-03-16T05:38:59.980Z,5
2017-03-16T05:39:40.395Z,5
2017-03-16T05:40:20.834Z,5
2017-03-16T05:41:02.909Z,10
2017-03-16T05:41:43.352Z,10
2017-03-16T05:42:23.737Z,10
2017-03-16T05:43:04.148Z,10
2017-03-16T05:43:44.591Z,10
2017-03-16T05:44:25.015Z,10
2017-03-16T05:45:05.457Z,10
2017-03-16T05:45:45.904Z,10
2017-03-16T05:46:26.320Z,15
2017-03-16T05:48:39.028Z,15
2017-03-16T05:49:19.390Z,15
2017-03-16T05:49:59.766Z,15
2017-03-16T05:50:40.198Z,20
2017-03-16T05:51:20.600Z,20
2017-03-16T05:52:00.989Z,20
2017-03-16T05:52:41.386Z,20
2017-03-16T05:55:19.408Z,25
2017-03-16T05:55:59.772Z,25
2017-03-16T05:56:40.268Z,25
2017-03-16T05:59:08.018Z,30
2017-03-16T05:59:48.462Z,30
2017-03-16T06:00:28.879Z,30
2017-03-16T06:01:09.297Z,30
2017-03-16T06:01:49.748Z,35
2017-03-16T06:02:30.199Z,35
2017-03-16T06:03:10.601Z,35
2017-03-16T06:03:51.026Z,35
2017-03-16T06:04:31.463Z,35
2017-03-16T06:05:11.867Z,40
2017-03-16T06:05:52.300Z,40
2017-03-16T06:06:32.745Z,40
2017-03-16T06:07:13.196Z,40
2017-03-16T06:07:53.608Z,45
2017-03-16T06:08:34.072Z,45
2017-03-16T06:09:14.470Z,45
2017-03-16T06:09:54.894Z,45
2017-03-16T06:10:35.323Z,45
2017-03-16T06:11:15.749Z,50
2017-03-16T06:11:56.162Z,50
2017-03-16T06:12:36.577Z,50
2017-03-16T06:13:17.013Z,50
2017-03-16T06:13:57.442Z,55
2017-03-16T06:16:15.181Z,55
2017-03-16T06:16:55.620Z,60
2017-03-16T06:17:36.062Z,60
2017-03-16T06:18:16.521Z,60
2017-03-16T06:18:56.957Z,60
2017-03-16T06:19:37.453Z,60
2017-03-16T06:20:17.972Z,65
2017-03-16T06:20:58.388Z,65
2017-03-16T06:21:38.813Z,65
2017-03-16T06:22:19.251Z,65
2017-03-16T06:22:59.705Z,70
2017-03-16T06:23:40.086Z,70
2017-03-16T06:25:52.738Z,75
2017-03-16T06:26:33.137Z,75
2017-03-16T06:27:13.532Z,75
2017-03-16T06:27:53.946Z,75
2017-03-16T06:28:34.349Z,75
2017-03-16T06:29:14.759Z,80
2017-03-16T06:29:55.175Z,80
2017-03-16T06:30:35.554Z,80
2017-03-16T06:31:15.970Z,80
2017-03-16T06:31:56.365Z,80
2017-03-16T06:32:36.733Z,85
2017-03-16T06:35:14.789Z,90
2017-03-16T06:35:55.169Z,90
2017-03-16T06:36:35.585Z,90
2017-03-16T06:37:16.034Z,90
2017-03-16T06:37:56.443Z,90
2017-03-16T06:38:36.867Z,95
2017-03-16T06:39:17.322Z,95
2017-03-16T06:39:57.765Z,95
2017-03-16T06:40:38.207Z,95
2017-03-16T06:41:18.677Z,95
2017-03-16T06:41:59.093Z,100
2017-03-16T06:42:39.527Z,100
2017-03-16T06:43:19.939Z,100
2017-03-16T06:44:00.385Z,100
2017-03-16T06:44:40.815Z,105
2017-03-16T06:45:21.253Z,105
2017-03-16T06:46:01.650Z,105
2017-03-16T06:48:14.307Z,110
2017-03-16T06:48:54.732Z,110
2017-03-16T06:49:35.149Z,110
2017-03-16T06:50:15.590Z,110
2017-03-16T06:50:56.027Z,115
2017-03-16T06:51:36.465Z,115
2017-03-16T06:52:16.924Z,115
2017-03-16T06:52:57.329Z,115
2017-03-16T06:53:37.765Z,120
2017-03-16T06:54:18.194Z,120
2017-03-16T06:54:58.649Z,120
2017-03-16T06:55:39.079Z,120
2017-03-16T06:56:19.527Z,120
2017-03-16T06:56:59.938Z,125
2017-03-16T06:57:40.397Z,125
2017-03-16T06:58:20.844Z,125
2017-03-16T06:59:01.299Z,125
2017-03-16T06:59:41.741Z,130
2017-03-16T07:00:22.167Z,130
2017-03-16T07:01:02.602Z,130
2017-03-16T07:01:43.046Z,130
2017-03-16T07:02:23.491Z,135
2017-03-16T07:03:03.935Z,135
2017-03-16T07:03:44.359Z,135
2017-03-16T07:04:24.801Z,135
2017-03-16T07:05:05.246Z,135
2017-03-16T07:05:45.678Z,140
2017-03-16T07:06:26.109Z,140
2017-03-16T07:07:06.546Z,140
2017-03-16T07:07:46.981Z,140
2017-03-16T07:08:27.444Z,140
2017-03-16T07:09:07.886Z,145
2017-03-16T07:11:25.666Z,155
2017-03-16T07:12:06.092Z,165
2017-03-16T07:12:46.548Z,175
2017-03-16T07:13:27.022Z,195
2017-03-16T07:14:07.453Z,205
2017-03-16T07:14:47.930Z,215
2017-03-16T07:15:28.379Z,220
2017-03-16T07:16:08.822Z,225
2017-03-16T07:16:49.251Z,230
2017-03-16T07:17:30.385Z,230
2017-03-16T07:18:10.784Z,235
2017-03-16T07:18:51.231Z,240
2017-03-16T07:19:31.698Z,240
2017-03-16T07:20:12.158Z,245
2017-03-16T07:20:52.670Z,245
2017-03-16T07:21:33.055Z,245
2017-03-16T07:22:13.498Z,250
2017-03-16T07:22:53.965Z,250
2017-03-16T07:23:34.528Z,255
2017-03-16T07:24:14.871Z,255
2017-03-16T07:24:55.399Z,255
2017-03-16T07:25:35.804Z,260
2017-03-16T07:26:16.198Z,260
2017-03-16T07:28:49.193Z,270
2017-03-16T07:29:29.636Z,270
2017-03-16T07:30:10.128Z,270
2017-03-16T07:30:50.604Z,270
2017-03-16T07:31:31.062Z,275
2017-03-16T07:32:11.513Z,275
2017-03-16T07:32:52.035Z,280
2017-03-16T07:33:32.481Z,280
2017-03-16T07:34:12.929Z,285
2017-03-16T07:34:53.377Z,285
2017-03-16T07:35:33.821Z,290
2017-03-16T07:36:14.289Z,290
2017-03-16T07:36:54.764Z,295
2017-03-16T07:39:22.732Z,305
2017-03-16T07:40:03.198Z,305
2017-03-16T07:40:43.687Z,310
2017-03-16T07:41:24.160Z,310
2017-03-16T07:42:04.663Z,310
2017-03-16T07:42:45.277Z,315
2017-03-16T07:43:25.730Z,310
2017-03-16T07:44:06.214Z,315
2017-03-16T07:44:46.694Z,320
2017-03-16T07:45:27.175Z,320
2017-03-16T07:47:55.183Z,325
2017-03-16T07:48:35.637Z,320
2017-03-16T07:49:16.114Z,310
2017-03-16T07:49:56.563Z,295
2017-03-16T07:50:36.984Z,280
2017-03-16T07:51:17.439Z,265
2017-03-16T07:51:57.904Z,235
2017-03-16T07:52:38.427Z,215
2017-03-16T07:53:18.863Z,210
2017-03-16T07:55:36.662Z,265
2017-03-16T07:56:17.125Z,290
2017-03-16T07:56:57.584Z,325
2017-03-16T07:57:38.032Z,360
2017-03-16T07:58:18.479Z,370
2017-03-16T08:00:31.198Z,390
2017-03-16T08:01:11.598Z,385
2017-03-16T08:03:44.626Z,380
2017-03-16T08:04:25.129Z,375
2017-03-16T08:05:05.610Z,350
2017-03-16T08:05:46.093Z,305
2017-03-16T08:06:26.576Z,250
2017-03-16T08:07:07.072Z,220
2017-03-16T08:07:47.534Z,210
2017-03-16T08:08:28.029Z,215
2017-03-16T08:09:08.523Z,215
2017-03-16T08:09:49.009Z,215
2017-03-16T08:10:29.490Z,215
2017-03-16T08:11:10.001Z,215
2017-03-16T08:11:50.475Z,220
2017-03-16T08:12:30.905Z,220
2017-03-16T08:13:11.360Z,220
2017-03-16T08:13:51.819Z,220
2017-03-16T08:14:32.289Z,220
2017-03-16T08:15:12.783Z,220
2017-03-16T08:15:53.237Z,225
2017-03-16T08:18:11.086Z,225
2017-03-16T08:18:51.560Z,225
2017-03-16T08:19:32.040Z,225
2017-03-16T08:20:12.534Z,235
2017-03-16T08:20:53.037Z,245
2017-03-16T08:21:33.542Z,260
2017-03-16T08:22:14.038Z,280
2017-03-16T08:22:54.517Z,310
2017-03-16T08:23:35.008Z,410
2017-03-16T08:24:15.508Z,540
2017-03-16T08:26:33.341Z,630
2017-03-16T08:27:13.847Z,555
2017-03-16T08:27:54.303Z,635
2017-03-16T08:28:34.875Z,605
2017-03-16T08:29:15.356Z,615
2017-03-16T08:31:48.404Z,605
2017-03-16T08:32:28.911Z,605
2017-03-16T08:33:09.362Z,595
2017-03-16T08:33:49.888Z,595
2017-03-16T08:34:30.386Z,600
2017-03-16T08:35:10.862Z,605
2017-03-16T08:35:51.337Z,610
2017-03-16T08:36:31.823Z,605
2017-03-16T08:37:12.331Z,605
2017-03-16T08:37:52.780Z,610
2017-03-16T08:38:33.274Z,610
2017-03-16T08:39:13.770Z,595
2017-03-16T08:39:54.256Z,600
2017-03-16T08:42:12.246Z,605
2017-03-16T08:42:52.703Z,595
2017-03-16T08:43:33.317Z,585
2017-03-16T08:44:13.822Z,585
2017-03-16T08:44:54.364Z,585
2017-03-16T08:45:34.845Z,575
2017-03-16T08:46:15.355Z,570
2017-03-16T08:46:55.846Z,570
2017-03-16T08:47:36.386Z,570
2017-03-16T08:48:16.887Z,560
2017-03-16T08:48:57.384Z,555
2017-03-16T08:49:37.883Z,550
2017-03-16T08:50:18.392Z,540
2017-03-16T08:50:58.898Z,530
2017-03-16T08:51:39.432Z,525
2017-03-16T08:52:19.892Z,520
2017-03-16T08:53:00.427Z,510
2017-03-16T08:53:40.955Z,480
2017-03-16T08:54:21.483Z,475
2017-03-16T08:55:01.992Z,455
2017-03-16T08:55:42.518Z,450
2017-03-16T08:56:22.975Z,440
2017-03-16T08:58:40.780Z,435
2017-03-16T08:59:21.295Z,425
2017-03-16T09:00:01.783Z,420
2017-03-16T09:00:42.286Z,420
2017-03-16T09:01:22.803Z,425
2017-03-16T09:02:03.268Z,420
2017-03-16T09:02:43.772Z,420
2017-03-16T09:05:02.506Z,430
2017-03-16T09:05:42.945Z,430
2017-03-16T09:06:23.449Z,430
2017-03-16T09:07:03.950Z,435
2017-03-16T09:07:44.392Z,435
2017-03-16T09:08:29.862Z,440
2017-03-16T09:09:10.366Z,445
2017-03-16T09:09:50.824Z,455
2017-03-16T09:10:31.329Z,460
2017-03-16T09:11:11.772Z,465
2017-03-16T09:11:52.262Z,470
2017-03-16T09:12:33.247Z,470
2017-03-16T09:15:06.856Z,485
2017-03-16T09:15:47.326Z,490
2017-03-16T09:16:27.803Z,495
2017-03-16T09:17:08.305Z,490
2017-03-16T09:17:48.781Z,495
2017-03-16T09:18:29.268Z,505
2017-03-16T09:19:09.743Z,530
2017-03-16T09:19:50.246Z,545
2017-03-16T09:20:30.728Z,545
2017-03-16T09:21:11.204Z,540
2017-03-16T09:21:51.676Z,535
2017-03-16T09:22:32.151Z,525
2017-03-16T09:23:12.634Z,535
2017-03-16T09:23:53.153Z,535
2017-03-16T09:24:33.619Z,540
2017-03-16T09:25:14.089Z,530
2017-03-16T09:25:54.538Z,515
2017-03-16T09:26:35.010Z,510
2017-03-16T09:27:15.516Z,510
2017-03-16T09:27:55.985Z,520
2017-03-16T09:28:36.481Z,515
2017-03-16T09:29:16.953Z,520
2017-03-16T09:29:57.432Z,535
2017-03-16T09:30:37.926Z,550
2017-03-16T09:33:10.974Z,535
2017-03-16T09:33:51.529Z,535
2017-03-16T09:34:32.006Z,525
2017-03-16T09:35:12.528Z,525
2017-03-16T09:35:53.028Z,530
2017-03-16T09:36:33.577Z,525
2017-03-16T09:37:14.067Z,500
2017-03-16T09:39:26.776Z,440
2017-03-16T09:40:07.286Z,430
2017-03-16T09:40:47.769Z,425
2017-03-16T09:41:28.275Z,430
2017-03-16T09:42:08.719Z,430
2017-03-16T09:42:49.204Z,455
2017-03-16T09:43:29.667Z,470
2017-03-16T09:45:43.075Z,490
2017-03-16T09:46:23.548Z,515
2017-03-16T09:47:04.789Z,550
2017-03-16T09:47:45.856Z,580
2017-03-16T09:48:26.384Z,600
2017-03-16T09:50:44.242Z,565
2017-03-16T09:51:24.815Z,560
2017-03-16T09:52:05.327Z,570
2017-03-16T09:52:45.787Z,580
2017-03-16T09:55:18.827Z,570
2017-03-16T09:55:59.291Z,560
2017-03-16T09:56:39.792Z,570
2017-03-16T09:57:20.259Z,570
2017-03-16T09:58:00.751Z,565
2017-03-16T09:58:41.214Z,560
2017-03-16T09:59:21.729Z,550
2017-03-16T10:00:02.208Z,535
2017-03-16T10:00:42.738Z,555
2017-03-16T10:01:23.233Z,550
2017-03-16T10:02:03.705Z,540
2017-03-16T10:02:44.179Z,535
2017-03-16T10:03:24.682Z,535
2017-03-16T10:04:05.179Z,530
2017-03-16T10:04:45.694Z,495
2017-03-16T10:05:26.209Z,455
2017-03-16T10:06:06.675Z,440
2017-03-16T10:06:47.174Z,440
2017-03-16T10:07:27.660Z,435
2017-03-16T10:08:08.206Z,435
2017-03-16T10:08:48.747Z,430
2017-03-16T10:09:29.314Z,430
2017-03-16T10:10:09.819Z,425
2017-03-16T10:10:50.327Z,435
2017-03-16T10:11:30.811Z,430
2017-03-16T10:12:11.300Z,430
2017-03-16T10:12:51.807Z,430
2017-03-16T10:13:32.319Z,430
2017-03-16T10:14:12.791Z,435
2017-03-16T10:14:53.303Z,435
2017-03-16T10:15:33.766Z,445
2017-03-16T10:16:14.232Z,445
2017-03-16T10:16:54.735Z,450
2017-03-16T10:17:35.195Z,450
2017-03-16T10:18:15.695Z,455
2017-03-16T10:18:56.223Z,460
2017-03-16T10:19:36.734Z,470
2017-03-16T10:20:17.311Z,485
2017-03-16T10:20:57.787Z,505
2017-03-16T10:21:38.280Z,515
2017-03-16T10:22:18.762Z,535
2017-03-16T10:22:59.287Z,540
2017-03-16T10:23:39.764Z,550
2017-03-16T10:24:20.264Z,575
2017-03-16T10:25:00.753Z,610
2017-03-16T10:25:41.281Z,645
2017-03-16T10:26:21.729Z,660
2017-03-16T10:27:02.205Z,665
2017-03-16T10:27:42.706Z,670
2017-03-16T10:28:23.221Z,670
2017-03-16T10:29:03.772Z,660
2017-03-16T10:31:21.610Z,665
2017-03-16T10:32:02.105Z,675
2017-03-16T10:32:42.587Z,680
2017-03-16T10:33:23.077Z,675
2017-03-16T10:34:03.563Z,670
2017-03-16T10:34:44.040Z,670
2017-03-16T10:35:25.369Z,675
2017-03-16T10:36:05.875Z,675
2017-03-16T10:36:46.367Z,675
2017-03-16T10:37:26.800Z,685
2017-03-16T10:38:07.302Z,695
2017-03-16T10:38:47.783Z,690
2017-03-16T10:39:28.278Z,685
2017-03-16T10:40:08.799Z,670
2017-03-16T10:40:49.281Z,675
2017-03-16T10:41:29.797Z,680
2017-03-16T10:42:10.309Z,700
2017-03-16T10:42:50.791Z,705
2017-03-16T10:43:31.338Z,705
2017-03-16T10:44:11.832Z,695
2017-03-16T10:46:40.454Z,735
2017-03-16T10:47:20.958Z,725
2017-03-16T10:48:01.454Z,710
2017-03-16T10:48:41.972Z,700
2017-03-16T10:49:22.451Z,705
2017-03-16T10:50:02.952Z,695
2017-03-16T10:50:43.467Z,700
2017-03-16T10:51:23.978Z,700
2017-03-16T10:52:04.472Z,695
2017-03-16T10:52:44.961Z,695
2017-03-16T10:55:12.931Z,740
2017-03-16T10:55:53.405Z,750
2017-03-16T10:56:33.861Z,735
2017-03-16T10:57:14.327Z,725
2017-03-16T10:59:47.376Z,730
2017-03-16T11:00:27.880Z,720
2017-03-16T11:01:08.362Z,715
2017-03-16T11:03:26.168Z,735
2017-03-16T11:04:06.655Z,715
2017-03-16T11:04:47.186Z,705
2017-03-16T11:05:27.757Z,710
2017-03-16T11:06:08.190Z,710
2017-03-16T11:06:48.693Z,720
2017-03-16T11:07:29.187Z,715
2017-03-16T11:08:09.703Z,710
2017-03-16T11:08:50.294Z,690
2017-03-16T11:09:30.758Z,695
2017-03-16T11:11:48.652Z,720
2017-03-16T11:12:29.106Z,705
2017-03-16T11:13:09.630Z,705
2017-03-16T11:13:50.101Z,730
2017-03-16T11:14:30.627Z,730
2017-03-16T11:15:11.121Z,715
2017-03-16T11:15:51.637Z,700
2017-03-16T11:16:32.144Z,715
2017-03-16T11:18:44.909Z,705
2017-03-16T11:19:25.382Z,700
2017-03-16T11:20:05.898Z,715
2017-03-16T11:20:46.372Z,720
2017-03-16T11:21:26.936Z,720
2017-03-16T11:22:07.456Z,725
2017-03-16T11:22:48.006Z,720
2017-03-16T11:23:28.496Z,705
2017-03-16T11:24:08.956Z,695
2017-03-16T11:26:42.203Z,715
2017-03-16T11:27:22.763Z,705
2017-03-16T11:28:03.254Z,710
2017-03-16T11:28:43.804Z,705
2017-03-16T11:29:24.285Z,720
2017-03-16T11:30:04.767Z,730
2017-03-16T11:30:45.263Z,725
2017-03-16T11:31:25.829Z,705
2017-03-16T11:32:06.264Z,700
2017-03-16T11:32:46.755Z,700
2017-03-16T11:33:27.260Z,680
2017-03-16T11:34:07.756Z,660
2017-03-16T11:34:48.256Z,660
2017-03-16T11:35:28.763Z,655
2017-03-16T11:36:09.298Z,655
2017-03-16T11:36:49.798Z,650
2017-03-16T11:37:30.301Z,655
2017-03-16T11:38:10.794Z,665
2017-03-16T11:38:51.313Z,675
2017-03-16T11:39:31.820Z,690
2017-03-16T11:40:12.311Z,675
2017-03-16T11:40:52.796Z,660
2017-03-16T11:41:33.308Z,640
2017-03-16T11:42:13.782Z,625
2017-03-16T11:42:54.302Z,625
2017-03-16T11:43:34.783Z,620
2017-03-16T11:44:15.284Z,620
2017-03-16T11:44:55.790Z,620